createdAt,value
2022-10-10T00:01:27.712Z,95701.59
2022-10-10T00:03:56.347Z,95705.88
2022-10-10T00:06:27.156Z,95700.59
2022-10-10T00:08:57.549Z,95705.88
2022-10-10T00:11:25.758Z,95701.41
2022-10-10T00:13:54.086Z,95700.59
2022-10-10T00:16:22.134Z,95694.28
2022-10-10T00:18:52.070Z,95690.59
2022-10-10T00:21:20.201Z,95692.84
2022-10-10T00:23:47.844Z,95692.63
2022-10-10T00:26:18.870Z,95690.34
2022-10-10T00:28:47.089Z,95695.66
2022-10-10T00:31:16.055Z,95696.91
2022-10-10T00:33:43.899Z,95687.53
2022-10-10T00:36:13.774Z,95696.47
2022-10-10T00:38:41.742Z,95689.53
2022-10-10T00:41:09.503Z,95694.03
2022-10-10T00:43:37.333Z,95691.16
2022-10-10T00:46:05.562Z,95686.06
2022-10-10T00:48:36.125Z,95688.31
2022-10-10T00:51:07.411Z,95692.41
2022-10-10T00:53:39.813Z,95692.03
2022-10-10T00:56:10.189Z,95687.53
2022-10-10T00:58:40.905Z,95684.09
2022-10-10T01:01:09.200Z,95681.84
2022-10-10T01:03:36.961Z,95679.41
2022-10-10T01:06:05.484Z,95681.22
2022-10-10T01:08:34.126Z,95682.03
2022-10-10T01:11:23.757Z,95685.91
2022-10-10T01:13:57.338Z,95683.25
2022-10-10T01:16:31.019Z,95688.00
2022-10-10T01:19:06.608Z,95685.94
2022-10-10T01:21:44.511Z,95685.34
2022-10-10T01:24:45.589Z,95681.88
2022-10-10T01:27:35.759Z,95688.44
2022-10-10T01:30:09.071Z,95685.94
2022-10-10T01:32:43.943Z,95685.94
2022-10-10T01:35:23.494Z,95683.13
2022-10-10T01:37:57.847Z,95686.38
2022-10-10T01:40:32.124Z,95686.19
2022-10-10T01:43:03.211Z,95681.09
2022-10-10T01:45:32.820Z,95681.91
2022-10-10T01:48:03.795Z,95673.13
2022-10-10T01:50:35.004Z,95683.34
2022-10-10T01:53:13.497Z,95676.13
2022-10-10T01:55:54.747Z,95679.22
2022-10-10T01:58:46.115Z,95683.50
2022-10-10T02:01:22.675Z,95682.50
2022-10-10T02:03:56.011Z,95677.75
2022-10-10T02:06:31.215Z,95675.31
2022-10-10T02:09:04.423Z,95669.66
2022-10-10T02:11:36.566Z,95670.88
2022-10-10T02:14:15.572Z,95675.75
2022-10-10T02:16:48.496Z,95669.66
2022-10-10T02:19:19.843Z,95669.66
2022-10-10T02:21:49.709Z,95667.19
2022-10-10T02:24:19.562Z,95668.00
2022-10-10T02:26:54.225Z,95665.81
2022-10-10T02:29:28.086Z,95661.69
2022-10-10T02:32:04.494Z,95663.66
2022-10-10T02:34:36.401Z,95667.53
2022-10-10T02:37:08.106Z,95665.13
2022-10-10T02:39:41.271Z,95664.28
2022-10-10T02:42:10.919Z,95667.34
2022-10-10T02:44:40.285Z,95675.66
2022-10-10T02:47:09.671Z,95661.84
2022-10-10T02:49:37.591Z,95666.34
2022-10-10T02:52:05.463Z,95672.84
2022-10-10T02:54:33.747Z,95661.44
2022-10-10T02:57:01.507Z,95669.75
2022-10-10T02:59:29.150Z,95671.16
2022-10-10T03:01:56.798Z,95666.06
2022-10-10T03:04:26.201Z,95675.25
2022-10-10T03:06:54.482Z,95674.84
2022-10-10T03:09:22.145Z,95681.75
2022-10-10T03:11:50.469Z,95677.66
2022-10-10T03:14:18.122Z,95671.78
2022-10-10T03:16:46.225Z,95674.44
2022-10-10T03:19:13.894Z,95683.38
2022-10-10T03:21:43.230Z,95676.47
2022-10-10T03:24:10.896Z,95673.19
2022-10-10T03:26:39.027Z,95671.97
2022-10-10T03:29:06.749Z,95670.75
2022-10-10T03:31:34.734Z,95670.56
2022-10-10T03:34:02.370Z,95679.47
2022-10-10T03:36:31.199Z,95669.25
2022-10-10T03:39:00.291Z,95665.78
2022-10-10T03:41:28.595Z,95667.41
2022-10-10T03:43:56.244Z,95670.81
2022-10-10T03:46:24.152Z,95666.13
2022-10-10T03:48:51.828Z,95675.00
2022-10-10T03:51:20.448Z,95670.72
2022-10-10T03:53:48.114Z,95677.78
2022-10-10T03:56:17.183Z,95673.25
2022-10-10T03:58:44.971Z,95683.03
2022-10-10T04:01:13.049Z,95680.72
2022-10-10T04:03:41.071Z,95677.31
2022-10-10T04:06:09.303Z,95679.97
2022-10-10T04:08:37.039Z,95675.41
2022-10-10T04:11:04.869Z,95681.72
2022-10-10T04:13:33.862Z,95678.47
2022-10-10T04:16:01.729Z,95672.56
2022-10-10T04:18:29.400Z,95681.50
2022-10-10T04:20:57.551Z,95681.88
2022-10-10T04:23:25.222Z,95683.88
2022-10-10T04:25:53.909Z,95689.31
2022-10-10T04:28:21.785Z,95677.50
2022-10-10T04:30:51.079Z,95675.88
2022-10-10T04:33:18.864Z,95672.53
2022-10-10T04:35:50.438Z,95674.56
2022-10-10T04:38:19.728Z,95676.16
2022-10-10T04:40:49.291Z,95682.63
2022-10-10T04:43:17.081Z,95669.53
2022-10-10T04:45:45.050Z,95677.66
2022-10-10T04:48:14.431Z,95677.22
2022-10-10T04:50:42.523Z,95670.31
2022-10-10T04:53:10.293Z,95670.66
2022-10-10T04:55:38.246Z,95675.13
2022-10-10T04:58:05.871Z,95671.44
2022-10-10T05:00:33.905Z,95676.22
2022-10-10T05:03:01.571Z,95678.47
2022-10-10T05:05:31.309Z,95674.28
2022-10-10T05:07:59.006Z,95673.06
2022-10-10T05:10:27.204Z,95670.66
2022-10-10T05:12:56.195Z,95674.72
2022-10-10T05:15:24.777Z,95671.88
2022-10-10T05:17:52.439Z,95673.69
2022-10-10T05:20:20.518Z,95677.63
2022-10-10T05:22:49.833Z,95674.19
2022-10-10T05:25:18.582Z,95676.22
2022-10-10T05:27:46.582Z,95678.59
2022-10-10T05:30:14.965Z,95671.69
2022-10-10T05:32:42.862Z,95674.31
2022-10-10T05:35:10.786Z,95673.50
2022-10-10T05:37:38.497Z,95685.72
2022-10-10T05:40:09.253Z,95680.25
2022-10-10T05:42:36.894Z,95669.03
2022-10-10T05:45:04.919Z,95677.41
2022-10-10T05:47:32.578Z,95685.47
2022-10-10T05:50:00.573Z,95678.22
2022-10-10T05:52:29.080Z,95679.53
2022-10-10T05:54:56.806Z,95682.41
2022-10-10T05:57:25.803Z,95687.13
2022-10-10T05:59:53.818Z,95683.88
2022-10-10T06:02:21.508Z,95687.59
2022-10-10T06:04:49.312Z,95688.84
2022-10-10T06:07:17.091Z,95687.44
2022-10-10T06:09:44.907Z,95684.81
2022-10-10T06:12:12.602Z,95690.09
2022-10-10T06:14:41.724Z,95693.75
2022-10-10T06:17:09.742Z,95688.69
2022-10-10T06:19:37.443Z,95689.31
2022-10-10T06:22:05.463Z,95693.44
2022-10-10T06:24:33.311Z,95692.25
2022-10-10T06:27:01.253Z,95694.91
2022-10-10T06:29:29.146Z,95697.34
2022-10-10T06:31:58.196Z,95690.06
2022-10-10T06:34:25.937Z,95697.41
2022-10-10T06:36:53.634Z,95698.00
2022-10-10T06:39:21.286Z,95701.31
2022-10-10T06:41:49.651Z,95697.69
2022-10-10T06:44:19.505Z,95705.88
2022-10-10T06:46:47.187Z,95699.22
2022-10-10T06:49:16.193Z,95713.28
2022-10-10T06:51:43.883Z,95706.81
2022-10-10T06:54:12.088Z,95713.38
2022-10-10T06:56:40.157Z,95708.94
2022-10-10T06:59:07.790Z,95712.81
2022-10-10T07:01:35.817Z,95719.78
2022-10-10T07:04:03.517Z,95724.09
2022-10-10T07:06:34.995Z,95717.31
2022-10-10T07:09:02.897Z,95727.34
2022-10-10T07:11:31.059Z,95723.06
2022-10-10T07:13:58.891Z,95725.31
2022-10-10T07:16:26.573Z,95726.75
2022-10-10T07:18:54.215Z,95728.81
2022-10-10T07:21:22.041Z,95730.06
2022-10-10T07:23:51.063Z,95729.00
2022-10-10T07:26:22.091Z,95729.44
2022-10-10T07:28:49.999Z,95742.91
2022-10-10T07:31:17.645Z,95739.44
2022-10-10T07:33:50.158Z,95738.66
2022-10-10T07:36:19.629Z,95738.03
2022-10-10T07:38:52.883Z,95737.78
2022-10-10T07:41:21.195Z,95744.31
2022-10-10T07:43:48.976Z,95744.91
2022-10-10T07:46:19.013Z,95744.03
2022-10-10T07:48:48.727Z,95744.63
2022-10-10T07:51:16.854Z,95749.44
2022-10-10T07:53:45.564Z,95745.50
2022-10-10T07:56:14.611Z,95744.41
2022-10-10T07:58:42.280Z,95754.38
2022-10-10T08:01:12.765Z,95753.44
2022-10-10T08:03:40.970Z,95745.75
2022-10-10T08:06:10.501Z,95747.44
2022-10-10T08:08:47.113Z,95754.34
2022-10-10T08:11:18.676Z,95753.13
2022-10-10T08:13:46.732Z,95755.84
2022-10-10T08:16:14.942Z,95753.53
2022-10-10T08:18:43.014Z,95751.81
2022-10-10T08:21:13.183Z,95754.25
2022-10-10T08:23:41.782Z,95753.69
2022-10-10T08:26:11.987Z,95755.53
2022-10-10T08:28:42.123Z,95752.63
2022-10-10T08:31:11.430Z,95751.66
2022-10-10T08:33:39.573Z,95754.16
2022-10-10T08:36:08.169Z,95761.72
2022-10-10T08:38:36.904Z,95759.06
2022-10-10T08:41:09.592Z,95762.94
2022-10-10T08:43:43.266Z,95762.69
2022-10-10T08:46:19.425Z,95767.50
2022-10-10T08:48:49.038Z,95759.34
2022-10-10T08:51:25.768Z,95761.72
2022-10-10T08:53:58.592Z,95764.97
2022-10-10T08:56:31.691Z,95770.53
2022-10-10T08:59:08.784Z,95764.84
2022-10-10T09:02:17.629Z,95766.22
2022-10-10T09:04:30.346Z,95767.63
2022-10-10T09:07:10.594Z,95773.00
2022-10-10T09:09:45.340Z,95772.16
2022-10-10T09:12:28.852Z,95768.28
2022-10-10T09:15:09.625Z,95777.59
2022-10-10T09:17:43.724Z,95768.75
2022-10-10T09:20:23.574Z,95772.13
2022-10-10T09:22:57.012Z,95766.75
2022-10-10T09:25:28.470Z,95771.28
2022-10-10T09:28:02.861Z,95776.88
2022-10-10T09:30:34.481Z,95776.91
2022-10-10T09:33:09.416Z,95776.00
2022-10-10T09:35:42.531Z,95774.03
2022-10-10T09:38:28.514Z,95772.84
2022-10-10T09:41:00.991Z,95776.00
2022-10-10T09:43:32.693Z,95778.69
2022-10-10T09:46:02.261Z,95780.75
2022-10-10T09:48:33.570Z,95778.13
2022-10-10T09:51:01.948Z,95779.28
2022-10-10T09:53:29.730Z,95771.91
2022-10-10T09:55:57.767Z,95768.41
2022-10-10T09:58:34.162Z,95774.91
2022-10-10T10:01:14.842Z,95772.28
2022-10-10T10:03:44.059Z,95775.50
2022-10-10T10:06:14.968Z,95775.22
2022-10-10T10:08:47.974Z,95770.66
2022-10-10T10:11:29.767Z,95770.53
2022-10-10T10:14:02.132Z,95774.09
2022-10-10T10:16:39.102Z,95778.66
2022-10-10T10:19:27.495Z,95770.19
2022-10-10T10:21:55.722Z,95776.69
2022-10-10T10:24:29.793Z,95780.31
2022-10-10T10:26:58.452Z,95785.63
2022-10-10T10:29:31.703Z,95773.38
2022-10-10T10:32:08.534Z,95774.47
2022-10-10T10:34:50.062Z,95777.78
2022-10-10T10:37:21.843Z,95765.56
2022-10-10T10:40:15.708Z,95770.91
2022-10-10T10:43:11.631Z,95764.94
2022-10-10T10:45:48.268Z,95765.50
2022-10-10T10:48:28.513Z,95766.94
2022-10-10T10:51:03.574Z,95773.09
2022-10-10T10:53:41.459Z,95777.84
2022-10-10T10:56:21.785Z,95772.16
2022-10-10T10:59:38.559Z,95761.47
2022-10-10T11:02:43.473Z,95765.59
2022-10-10T11:05:41.643Z,95760.97
2022-10-10T11:08:47.369Z,95761.63
2022-10-10T11:11:29.481Z,95761.19
2022-10-10T11:14:04.255Z,95762.97
2022-10-10T11:16:55.192Z,95757.44
2022-10-10T11:19:29.891Z,95754.41
2022-10-10T11:22:14.338Z,95761.91
2022-10-10T11:24:46.673Z,95766.22
2022-10-10T11:27:19.551Z,95759.75
2022-10-10T11:30:04.267Z,95757.94
2022-10-10T11:32:36.828Z,95759.13
2022-10-10T11:35:15.151Z,95760.63
2022-10-10T11:37:48.559Z,95749.44
2022-10-10T11:40:30.094Z,95752.19
2022-10-10T11:43:02.607Z,95753.06
2022-10-10T11:45:35.718Z,95754.84
2022-10-10T11:48:15.470Z,95758.69
2022-10-10T11:50:44.785Z,95757.66
2022-10-10T11:53:23.338Z,95759.16
2022-10-10T11:55:57.033Z,95760.94
2022-10-10T11:58:30.607Z,95761.75
2022-10-10T12:01:04.927Z,95754.41
2022-10-10T12:03:32.874Z,95757.63
2022-10-10T12:06:06.926Z,95753.47
2022-10-10T12:08:40.463Z,95756.06
2022-10-10T12:11:18.388Z,95758.59
2022-10-10T12:13:50.536Z,95761.38
2022-10-10T12:16:25.764Z,95756.31
2022-10-10T12:19:00.913Z,95758.69
2022-10-10T12:21:31.523Z,95756.41
2022-10-10T12:24:10.364Z,95759.53
2022-10-10T12:27:11.506Z,95758.94
2022-10-10T12:29:48.975Z,95752.50
2022-10-10T12:32:28.973Z,95755.81
2022-10-10T12:35:01.858Z,95744.94
2022-10-10T12:37:31.027Z,95761.28
2022-10-10T12:40:21.757Z,95754.84
2022-10-10T12:43:05.378Z,95747.75
2022-10-10T12:46:12.919Z,95753.00
2022-10-10T12:48:40.738Z,95748.03
2022-10-10T12:51:20.276Z,95748.75
2022-10-10T12:53:53.258Z,95740.31
2022-10-10T12:56:40.497Z,95735.94
2022-10-10T12:59:20.158Z,95743.91
2022-10-10T13:01:52.873Z,95739.03
2022-10-10T13:04:22.428Z,95742.56
2022-10-10T13:06:55.191Z,95742.94
2022-10-10T13:09:25.521Z,95743.88
2022-10-10T13:11:59.716Z,95743.50
2022-10-10T13:14:38.642Z,95751.06
2022-10-10T13:17:21.446Z,95743.69
2022-10-10T13:19:49.899Z,95750.44
2022-10-10T13:22:18.426Z,95738.38
2022-10-10T13:24:49.510Z,95741.81
2022-10-10T13:27:21.916Z,95738.13
2022-10-10T13:29:49.804Z,95740.00
2022-10-10T13:32:21.046Z,95740.09
2022-10-10T13:34:53.314Z,95735.16
2022-10-10T13:37:21.794Z,95736.78
2022-10-10T13:39:51.257Z,95735.81
2022-10-10T13:42:33.854Z,95742.44
2022-10-10T13:45:03.735Z,95739.44
2022-10-10T13:47:53.390Z,95735.72
2022-10-10T13:50:27.463Z,95742.97
2022-10-10T13:53:31.830Z,95734.72
2022-10-10T13:56:05.161Z,95736.34
2022-10-10T13:58:41.836Z,95742.09
2022-10-10T14:01:28.829Z,95742.44
2022-10-10T14:04:01.023Z,95741.13
2022-10-10T14:06:30.200Z,95742.59
2022-10-10T14:09:08.129Z,95745.16
2022-10-10T14:11:35.903Z,95742.38
2022-10-10T14:14:09.428Z,95745.16
2022-10-10T14:16:37.154Z,95751.31
2022-10-10T14:19:11.503Z,95744.00
2022-10-10T14:21:39.197Z,95746.19
2022-10-10T14:24:08.618Z,95746.50
2022-10-10T14:26:37.252Z,95740.09
2022-10-10T14:29:11.922Z,95740.44
2022-10-10T14:31:39.640Z,95739.88
2022-10-10T14:34:07.361Z,95748.13
2022-10-10T14:36:35.203Z,95743.25
2022-10-10T14:39:02.906Z,95747.72
2022-10-10T14:41:30.626Z,95740.75
2022-10-10T14:43:58.344Z,95744.81
2022-10-10T14:46:28.111Z,95747.13
2022-10-10T14:48:55.779Z,95740.47
2022-10-10T14:51:33.950Z,95752.00
2022-10-10T14:54:11.171Z,95749.88
2022-10-10T14:57:08.834Z,95752.34
2022-10-10T14:59:48.451Z,95748.91
2022-10-10T15:02:20.531Z,95738.53
2022-10-10T15:04:48.737Z,95747.19
2022-10-10T15:07:17.232Z,95755.75
2022-10-10T15:10:11.211Z,95754.41
2022-10-10T15:12:36.722Z,95758.75
2022-10-10T15:15:06.626Z,95751.38
2022-10-10T15:17:35.878Z,95749.84
2022-10-10T15:20:05.371Z,95757.31
2022-10-10T15:22:33.461Z,95750.66
2022-10-10T15:25:01.769Z,95761.38
2022-10-10T15:27:29.660Z,95757.78
2022-10-10T15:29:57.692Z,95762.56
2022-10-10T15:32:25.451Z,95767.38
2022-10-10T15:34:54.841Z,95761.19
2022-10-10T15:37:25.703Z,95764.13
2022-10-10T15:39:53.532Z,95764.69
2022-10-10T15:42:23.034Z,95759.91
2022-10-10T15:44:52.135Z,95768.84
2022-10-10T15:47:20.838Z,95765.44
2022-10-10T15:49:49.170Z,95763.97
2022-10-10T15:52:19.360Z,95767.06
2022-10-10T15:54:49.723Z,95783.47
2022-10-10T15:57:19.180Z,95776.63
2022-10-10T15:59:47.304Z,95770.72
2022-10-10T16:02:15.401Z,95765.00
2022-10-10T16:04:43.433Z,95769.06
2022-10-10T16:07:29.875Z,95772.50
2022-10-10T16:10:01.192Z,95772.75
2022-10-10T16:12:29.632Z,95774.44
2022-10-10T16:14:57.378Z,95778.00
2022-10-10T16:17:25.185Z,95776.03
2022-10-10T16:19:52.932Z,95774.94
2022-10-10T16:22:21.686Z,95777.44
2022-10-10T16:25:10.261Z,95788.25
2022-10-10T16:27:39.246Z,95780.22
2022-10-10T16:30:08.242Z,95786.38
2022-10-10T16:32:41.045Z,95795.91
2022-10-10T16:35:10.599Z,95791.47
2022-10-10T16:37:38.343Z,95794.41
2022-10-10T16:40:07.566Z,95803.66
2022-10-10T16:42:35.467Z,95810.78
2022-10-10T16:45:05.014Z,95819.16
2022-10-10T16:47:33.017Z,95812.59
2022-10-10T16:50:01.048Z,95822.88
2022-10-10T16:52:28.809Z,95816.13
2022-10-10T16:54:56.516Z,95820.84
2022-10-10T16:57:24.203Z,95817.56
2022-10-10T16:59:52.452Z,95816.25
2022-10-10T17:02:24.357Z,95827.53
2022-10-10T17:04:52.635Z,95826.66
2022-10-10T17:07:20.994Z,95823.09
2022-10-10T17:09:48.678Z,95822.56
2022-10-10T17:12:16.698Z,95826.56
2022-10-10T17:14:44.395Z,95827.69
2022-10-10T17:17:13.608Z,95825.09
2022-10-10T17:19:43.042Z,95829.91
2022-10-10T17:22:11.620Z,95821.81
2022-10-10T17:24:39.437Z,95833.78
2022-10-10T17:27:07.494Z,95832.25
2022-10-10T17:29:35.223Z,95833.09
2022-10-10T17:32:06.466Z,95837.66
2022-10-10T17:34:35.001Z,95840.00
2022-10-10T17:37:05.352Z,95839.66
2022-10-10T17:39:33.778Z,95845.03
2022-10-10T17:42:01.577Z,95842.84
2022-10-10T17:44:29.513Z,95841.69
2022-10-10T17:46:57.693Z,95843.44
2022-10-10T17:49:25.428Z,95859.31
2022-10-10T17:51:53.553Z,95855.06
2022-10-10T17:54:23.194Z,95861.38
2022-10-10T17:56:51.110Z,95864.41
2022-10-10T17:59:18.824Z,95867.94
2022-10-10T18:01:46.849Z,95862.81
2022-10-10T18:04:16.419Z,95861.41
2022-10-10T18:06:44.852Z,95864.88
2022-10-10T18:09:12.562Z,95871.22
2022-10-10T18:11:41.666Z,95871.63
2022-10-10T18:14:09.406Z,95871.63
2022-10-10T18:16:37.965Z,95875.31
2022-10-10T18:19:08.057Z,95871.00
2022-10-10T18:21:36.686Z,95878.16
2022-10-10T18:24:04.761Z,95878.16
2022-10-10T18:26:33.677Z,95880.63
2022-10-10T18:29:02.795Z,95873.41
2022-10-10T18:31:33.060Z,95872.38
2022-10-10T18:34:01.702Z,95880.53
2022-10-10T18:36:32.618Z,95879.50
2022-10-10T18:39:01.702Z,95884.81
2022-10-10T18:41:34.575Z,95891.53
2022-10-10T18:44:06.330Z,95884.34
2022-10-10T18:46:35.177Z,95884.94
2022-10-10T18:49:04.376Z,95883.72
2022-10-10T18:51:32.772Z,95889.63
2022-10-10T18:54:03.543Z,95881.63
2022-10-10T18:56:33.375Z,95896.13
2022-10-10T18:59:04.717Z,95895.50
2022-10-10T19:01:36.393Z,95891.31
2022-10-10T19:04:06.287Z,95897.47
2022-10-10T19:06:34.894Z,95892.41
2022-10-10T19:09:03.324Z,95893.31
2022-10-10T19:11:34.124Z,95887.56
2022-10-10T19:14:05.237Z,95886.53
2022-10-10T19:16:33.902Z,95881.38
2022-10-10T19:19:02.896Z,95883.41
2022-10-10T19:21:33.574Z,95885.84
2022-10-10T19:24:02.203Z,95897.44
2022-10-10T19:26:33.655Z,95899.69
2022-10-10T19:29:06.793Z,95898.25
2022-10-10T19:31:35.926Z,95896.41
2022-10-10T19:34:03.964Z,95897.22
2022-10-10T19:36:31.763Z,95887.84
2022-10-10T19:39:00.760Z,95894.94
2022-10-10T19:41:28.544Z,95891.84
2022-10-10T19:43:58.005Z,95891.84
2022-10-10T19:46:27.953Z,95892.84
2022-10-10T19:48:58.079Z,95900.06
2022-10-10T19:51:30.123Z,95907.41
2022-10-10T19:53:58.755Z,95910.31
2022-10-10T19:56:26.995Z,95917.00
2022-10-10T19:58:56.418Z,95917.38
2022-10-10T20:01:29.614Z,95924.91
2022-10-10T20:03:58.937Z,95927.09
2022-10-10T20:06:27.418Z,95927.50
2022-10-10T20:08:55.740Z,95934.44
2022-10-10T20:11:23.529Z,95928.56
2022-10-10T20:13:53.899Z,95929.13
2022-10-10T20:16:26.254Z,95926.34
2022-10-10T20:18:57.326Z,95927.59
2022-10-10T20:21:31.253Z,95932.13
2022-10-10T20:24:00.277Z,95932.00
2022-10-10T20:26:28.530Z,95929.69
2022-10-10T20:28:57.822Z,95934.44
2022-10-10T20:31:27.411Z,95936.44
2022-10-10T20:33:58.465Z,95934.63
2022-10-10T20:36:26.380Z,95939.22
2022-10-10T20:38:55.459Z,95934.66
2022-10-10T20:41:24.422Z,95937.72
2022-10-10T20:43:58.098Z,95945.28
2022-10-10T20:46:27.492Z,95943.38
2022-10-10T20:48:57.486Z,95953.09
2022-10-10T20:51:26.589Z,95951.09
2022-10-10T20:53:57.174Z,95957.19
2022-10-10T20:56:25.486Z,95952.16
2022-10-10T20:58:54.097Z,95962.31
2022-10-10T21:01:25.595Z,95962.31
2022-10-10T21:03:53.859Z,95961.47
2022-10-10T21:06:24.751Z,95964.06
2022-10-10T21:08:53.645Z,95967.84
2022-10-10T21:11:22.758Z,95971.06
2022-10-10T21:13:54.148Z,95969.59
2022-10-10T21:16:22.403Z,95969.69
2022-10-10T21:18:57.495Z,95964.41
2022-10-10T21:21:29.630Z,95968.59
2022-10-10T21:23:58.131Z,95959.53
2022-10-10T21:26:27.781Z,95961.66
2022-10-10T21:28:56.133Z,95964.72
2022-10-10T21:31:26.429Z,95960.72
2022-10-10T21:33:54.960Z,95962.56
2022-10-10T21:36:27.225Z,95963.19
2022-10-10T21:38:55.858Z,95976.69
2022-10-10T21:41:24.799Z,95962.94
2022-10-10T21:43:56.354Z,95966.69
2022-10-10T21:46:28.608Z,95976.63
2022-10-10T21:49:02.121Z,95965.94
2022-10-10T21:51:31.851Z,95969.03
2022-10-10T21:54:00.028Z,95974.34
2022-10-10T21:56:27.732Z,95970.94
2022-10-10T21:59:00.150Z,95974.03
2022-10-10T22:01:28.776Z,95979.31
2022-10-10T22:03:56.606Z,95982.50
2022-10-10T22:06:25.771Z,95988.63
2022-10-10T22:08:58.793Z,95997.47
2022-10-10T22:11:28.266Z,95998.84
2022-10-10T22:13:56.152Z,95995.47
2022-10-10T22:16:24.133Z,95998.97
2022-10-10T22:18:55.715Z,96001.00
2022-10-10T22:21:29.228Z,96003.44
2022-10-10T22:24:01.292Z,96007.88
2022-10-10T22:26:29.022Z,95997.13
2022-10-10T22:28:57.109Z,95992.03
2022-10-10T22:31:24.950Z,96000.50
2022-10-10T22:33:52.644Z,95996.28
2022-10-10T22:36:20.315Z,96005.69
2022-10-10T22:38:48.167Z,96004.50
2022-10-10T22:41:17.269Z,96003.28
2022-10-10T22:43:45.538Z,96013.50
2022-10-10T22:46:13.341Z,96002.50
2022-10-10T22:48:41.406Z,96011.34
2022-10-10T22:51:12.577Z,96021.94
2022-10-10T22:53:41.842Z,96021.78
2022-10-10T22:56:10.855Z,96015.13
2022-10-10T22:58:40.433Z,96027.56
2022-10-10T23:01:10.498Z,96028.25
2022-10-10T23:03:38.899Z,96043.19
2022-10-10T23:06:07.556Z,96033.41
2022-10-10T23:08:36.479Z,96038.56
2022-10-10T23:11:04.594Z,96039.38
2022-10-10T23:13:33.068Z,96039.63
2022-10-10T23:16:02.896Z,96042.78
2022-10-10T23:18:32.165Z,96048.72
2022-10-10T23:21:00.794Z,96045.03
2022-10-10T23:23:28.601Z,96049.94
2022-10-10T23:25:56.610Z,96056.53
2022-10-10T23:28:24.382Z,96047.75
2022-10-10T23:30:52.809Z,96052.22
2022-10-10T23:33:21.866Z,96055.06
2022-10-10T23:35:58.323Z,96052.22
2022-10-10T23:38:26.451Z,96044.69
2022-10-10T23:40:55.388Z,96053.47
2022-10-10T23:43:23.282Z,96055.38
2022-10-10T23:45:51.877Z,96046.09
2022-10-10T23:48:21.527Z,96058.03
2022-10-10T23:50:49.630Z,96056.47
2022-10-10T23:53:17.364Z,96052.66
2022-10-10T23:55:47.682Z,96051.03
2022-10-10T23:58:15.553Z,96054.53
